sensor_id;sensor_type;location;lat;lon;timestamp;pressure;altitude;pressure_sealevel;temperature;humidity
9189;BME280;34313;50.780;6.084;2023-08-08T00:00:07;99552.41;;;12.65;100.00
9189;BME280;34313;50.780;6.084;2023-08-08T00:02:34;99546.03;;;12.55;100.00
9189;BME280;34313;50.780;6.084;2023-08-08T00:04:59;99546.03;;;12.55;100.00
9189;BME280;34313;50.780;6.084;2023-08-08T00:07:24;99542.31;;;12.44;100.00
9189;BME280;34313;50.780;6.084;2023-08-08T00:09:49;99532.16;;;12.38;100.00
9189;BME280;34313;50.780;6.084;2023-08-08T00:12:15;99539.25;;;12.38;100.00
9189;BME280;34313;50.780;6.084;2023-08-08T00:14:40;99546.94;;;12.41;100.00
9189;BME280;34313;50.780;6.084;2023-08-08T00:17:05;99543.19;;;12.30;100.00
9189;BME280;34313;50.780;6.084;2023-08-08T00:19:31;99549.69;;;12.39;100.00
9189;BME280;34313;50.780;6.084;2023-08-08T00:21:56;99534.69;;;12.40;100.00
9189;BME280;34313;50.780;6.084;2023-08-08T00:24:21;99541.16;;;12.48;100.00
9189;BME280;34313;50.780;6.084;2023-08-08T00:26:47;99537.78;;;12.46;100.00
9189;BME280;34313;50.780;6.084;2023-08-08T00:29:12;99527.59;;;12.40;100.00
9189;BME280;34313;50.780;6.084;2023-08-08T00:31:37;99533.25;;;12.48;100.00
9189;BME280;34313;50.780;6.084;2023-08-08T00:34:03;99535.88;;;12.48;100.00
9189;BME280;34313;50.780;6.084;2023-08-08T00:36:28;99535.97;;;12.47;100.00
9189;BME280;34313;50.780;6.084;2023-08-08T00:38:53;99523.50;;;12.49;100.00
9189;BME280;34313;50.780;6.084;2023-08-08T00:41:19;99525.97;;;12.52;100.00
9189;BME280;34313;50.780;6.084;2023-08-08T00:43:44;99526.69;;;12.54;100.00
9189;BME280;34313;50.780;6.084;2023-08-08T00:46:10;99515.03;;;12.44;100.00
9189;BME280;34313;50.780;6.084;2023-08-08T00:48:36;99517.78;;;12.42;100.00
9189;BME280;34313;50.780;6.084;2023-08-08T00:51:01;99505.72;;;12.38;100.00
9189;BME280;34313;50.780;6.084;2023-08-08T00:53:27;99505.91;;;12.35;100.00
9189;BME280;34313;50.780;6.084;2023-08-08T00:55:56;99503.06;;;12.38;100.00
9189;BME280;34313;50.780;6.084;2023-08-08T00:58:21;99496.88;;;12.25;100.00
9189;BME280;34313;50.780;6.084;2023-08-08T01:00:46;99499.28;;;12.15;100.00
9189;BME280;34313;50.780;6.084;2023-08-08T01:03:11;99506.91;;;12.20;100.00
9189;BME280;34313;50.780;6.084;2023-08-08T01:05:47;99498.97;;;12.20;100.00
9189;BME280;34313;50.780;6.084;2023-08-08T01:08:16;99510.97;;;12.11;100.00
9189;BME280;34313;50.780;6.084;2023-08-08T01:10:46;99511.50;;;12.03;100.00
9189;BME280;34313;50.780;6.084;2023-08-08T01:13:17;99509.69;;;12.04;100.00
9189;BME280;34313;50.780;6.084;2023-08-08T01:15:46;99498.66;;;11.97;100.00
9189;BME280;34313;50.780;6.084;2023-08-08T01:18:13;99490.09;;;11.94;100.00
9189;BME280;34313;50.780;6.084;2023-08-08T01:20:40;99496.56;;;12.02;100.00
9189;BME280;34313;50.780;6.084;2023-08-08T01:23:12;99505.78;;;12.09;100.00
9189;BME280;34313;50.780;6.084;2023-08-08T01:25:40;99495.84;;;12.00;100.00
9189;BME280;34313;50.780;6.084;2023-08-08T01:28:07;99477.94;;;11.91;100.00
9189;BME280;34313;50.780;6.084;2023-08-08T01:30:33;99495.00;;;12.00;100.00
9189;BME280;34313;50.780;6.084;2023-08-08T01:32:58;99494.53;;;11.93;100.00
9189;BME280;34313;50.780;6.084;2023-08-08T01:35:26;99493.09;;;11.87;100.00
9189;BME280;34313;50.780;6.084;2023-08-08T01:38:00;99493.69;;;11.93;100.00
9189;BME280;34313;50.780;6.084;2023-08-08T01:40:30;99496.56;;;12.02;100.00
9189;BME280;34313;50.780;6.084;2023-08-08T01:42:57;99490.09;;;11.94;100.00
9189;BME280;34313;50.780;6.084;2023-08-08T01:45:24;99513.59;;;11.84;100.00
9189;BME280;34313;50.780;6.084;2023-08-08T01:47:52;99504.81;;;11.83;100.00
9189;BME280;34313;50.780;6.084;2023-08-08T01:50:18;99504.91;;;11.67;100.00
9189;BME280;34313;50.780;6.084;2023-08-08T01:52:44;99502.09;;;11.56;100.00
9189;BME280;34313;50.780;6.084;2023-08-08T01:55:10;99511.63;;;11.59;100.00
9189;BME280;34313;50.780;6.084;2023-08-08T01:57:35;99518.78;;;11.57;100.00
9189;BME280;34313;50.780;6.084;2023-08-08T02:00:00;99512.00;;;11.52;100.00
9189;BME280;34313;50.780;6.084;2023-08-08T02:02:26;99507.84;;;11.63;100.00
9189;BME280;34313;50.780;6.084;2023-08-08T02:04:52;99503.88;;;11.70;100.00
9189;BME280;34313;50.780;6.084;2023-08-08T02:07:17;99499.53;;;11.69;100.00
9189;BME280;34313;50.780;6.084;2023-08-08T02:09:42;99498.78;;;11.67;100.00
9189;BME280;34313;50.780;6.084;2023-08-08T02:12:08;99496.44;;;11.62;100.00
9189;BME280;34313;50.780;6.084;2023-08-08T02:14:33;99502.09;;;11.56;100.00
9189;BME280;34313;50.780;6.084;2023-08-08T02:16:58;99491.16;;;11.48;100.00
9189;BME280;34313;50.780;6.084;2023-08-08T02:19:24;99497.19;;;11.50;100.00
9189;BME280;34313;50.780;6.084;2023-08-08T02:21:49;99484.69;;;11.53;100.00
9189;BME280;34313;50.780;6.084;2023-08-08T02:24:14;99488.53;;;11.48;100.00
9189;BME280;34313;50.780;6.084;2023-08-08T02:26:40;99486.53;;;11.51;100.00
9189;BME280;34313;50.780;6.084;2023-08-08T02:29:05;99478.53;;;11.53;100.00
9189;BME280;34313;50.780;6.084;2023-08-08T02:31:30;99489.66;;;11.58;100.00
9189;BME280;34313;50.780;6.084;2023-08-08T02:33:56;99491.56;;;11.56;100.00
9189;BME280;34313;50.780;6.084;2023-08-08T02:36:21;99491.00;;;11.51;100.00
9189;BME280;34313;50.780;6.084;2023-08-08T02:38:47;99486.63;;;11.50;100.00
9189;BME280;34313;50.780;6.084;2023-08-08T02:41:12;99481.56;;;11.47;100.00
9189;BME280;34313;50.780;6.084;2023-08-08T02:43:37;99471.09;;;11.45;100.00
9189;BME280;34313;50.780;6.084;2023-08-08T02:46:03;99487.59;;;11.49;100.00
9189;BME280;34313;50.780;6.084;2023-08-08T02:48:29;99477.03;;;11.49;100.00
9189;BME280;34313;50.780;6.084;2023-08-08T02:50:55;99481.28;;;11.37;100.00
9189;BME280;34313;50.780;6.084;2023-08-08T02:53:20;99466.28;;;11.38;100.00
9189;BME280;34313;50.780;6.084;2023-08-08T02:55:46;99466.56;;;11.47;100.00
9189;BME280;34313;50.780;6.084;2023-08-08T02:58:12;99460.00;;;11.40;100.00
9189;BME280;34313;50.780;6.084;2023-08-08T03:00:37;99451.44;;;11.22;100.00
9189;BME280;34313;50.780;6.084;2023-08-08T03:03:02;99464.63;;;11.37;100.00
9189;BME280;34313;50.780;6.084;2023-08-08T03:05:28;99460.56;;;11.31;100.00
9189;BME280;34313;50.780;6.084;2023-08-08T03:07:53;99455.66;;;11.53;100.00
9189;BME280;34313;50.780;6.084;2023-08-08T03:10:18;99461.28;;;11.62;100.00
9189;BME280;34313;50.780;6.084;2023-08-08T03:12:44;99462.75;;;11.80;100.00
9189;BME280;34313;50.780;6.084;2023-08-08T03:15:09;99449.25;;;11.85;100.00
9189;BME280;34313;50.780;6.084;2023-08-08T03:17:35;99452.66;;;11.87;100.00
9189;BME280;34313;50.780;6.084;2023-08-08T03:20:01;99450.28;;;11.97;100.00
9189;BME280;34313;50.780;6.084;2023-08-08T03:22:28;99450.63;;;12.05;100.00
9189;BME280;34313;50.780;6.084;2023-08-08T03:24:53;99456.16;;;12.15;100.00
9189;BME280;34313;50.780;6.084;2023-08-08T03:27:18;99444.03;;;12.25;100.00
9189;BME280;34313;50.780;6.084;2023-08-08T03:29:43;99451.66;;;12.29;100.00
9189;BME280;34313;50.780;6.084;2023-08-08T03:32:09;99441.13;;;12.42;100.00
9189;BME280;34313;50.780;6.084;2023-08-08T03:34:34;99459.31;;;12.47;100.00
9189;BME280;34313;50.780;6.084;2023-08-08T03:36:59;99446.53;;;12.54;100.00
9189;BME280;34313;50.780;6.084;2023-08-08T03:39:25;99434.06;;;12.56;100.00
9189;BME280;34313;50.780;6.084;2023-08-08T03:41:50;99443.28;;;12.63;100.00
9189;BME280;34313;50.780;6.084;2023-08-08T03:44:15;99435.75;;;12.57;100.00
9189;BME280;34313;50.780;6.084;2023-08-08T03:46:40;99444.66;;;12.68;100.00
9189;BME280;34313;50.780;6.084;2023-08-08T03:49:06;99449.63;;;12.73;100.00
9189;BME280;34313;50.780;6.084;2023-08-08T03:51:31;99440.44;;;12.66;100.00
9189;BME280;34313;50.780;6.084;2023-08-08T03:53:56;99433.13;;;12.70;100.00
9189;BME280;34313;50.780;6.084;2023-08-08T03:56:22;99439.91;;;12.74;100.00
9189;BME280;34313;50.780;6.084;2023-08-08T03:58:47;99436.28;;;12.62;100.00
9189;BME280;34313;50.780;6.084;2023-08-08T04:01:13;99438.97;;;12.75;100.00
9189;BME280;34313;50.780;6.084;2023-08-08T04:03:38;99439.91;;;12.74;100.00
9189;BME280;34313;50.780;6.084;2023-08-08T04:06:03;99442.53;;;12.74;100.00
9189;BME280;34313;50.780;6.084;2023-08-08T04:08:28;99432.06;;;12.72;100.00
9189;BME280;34313;50.780;6.084;2023-08-08T04:10:54;99426.28;;;12.80;100.00
9189;BME280;34313;50.780;6.084;2023-08-08T04:13:20;99421.63;;;12.83;100.00
9189;BME280;34313;50.780;6.084;2023-08-08T04:15:45;99443.16;;;12.90;100.00
9189;BME280;34313;50.780;6.084;2023-08-08T04:18:11;99433.66;;;12.88;100.00
9189;BME280;34313;50.780;6.084;2023-08-08T04:20:36;99414.19;;;12.76;100.00
9189;BME280;34313;50.780;6.084;2023-08-08T04:23:01;99429.63;;;12.95;100.00
9189;BME280;34313;50.780;6.084;2023-08-08T04:25:28;99429.09;;;12.90;100.00
9189;BME280;34313;50.780;6.084;2023-08-08T04:27:53;99432.81;;;13.00;100.00
9189;BME280;34313;50.780;6.084;2023-08-08T04:30:19;99431.97;;;13.12;100.00
9189;BME280;34313;50.780;6.084;2023-08-08T04:32:45;99429.84;;;13.17;100.00
9189;BME280;34313;50.780;6.084;2023-08-08T04:35:10;99438.50;;;13.19;100.00
9189;BME280;34313;50.780;6.084;2023-08-08T04:37:36;99441.16;;;13.19;100.00
9189;BME280;34313;50.780;6.084;2023-08-08T04:40:01;99429.91;;;13.29;100.00
9189;BME280;34313;50.780;6.084;2023-08-08T04:42:26;99431.44;;;13.33;100.00
9189;BME280;34313;50.780;6.084;2023-08-08T04:44:51;99417.53;;;13.29;100.00
9189;BME280;34313;50.780;6.084;2023-08-08T04:47:17;99431.84;;;13.39;100.00
9189;BME280;34313;50.780;6.084;2023-08-08T04:49:42;99426.94;;;13.46;100.00
9189;BME280;34313;50.780;6.084;2023-08-08T04:52:07;99425.13;;;13.59;100.00
9189;BME280;34313;50.780;6.084;2023-08-08T04:54:33;99407.81;;;13.67;100.00
9189;BME280;34313;50.780;6.084;2023-08-08T04:56:58;99413.22;;;13.78;100.00
9189;BME280;34313;50.780;6.084;2023-08-08T04:59:23;99418.22;;;13.70;100.00
9189;BME280;34313;50.780;6.084;2023-08-08T05:01:48;99414.59;;;13.71;100.00
9189;BME280;34313;50.780;6.084;2023-08-08T05:04:14;99406.78;;;13.69;100.00
9189;BME280;34313;50.780;6.084;2023-08-08T05:06:39;99406.53;;;13.72;100.00
9189;BME280;34313;50.780;6.084;2023-08-08T05:09:04;99411.34;;;13.91;100.00
9189;BME280;34313;50.780;6.084;2023-08-08T05:11:30;99409.59;;;14.97;100.00
9189;BME280;34313;50.780;6.084;2023-08-08T05:13:55;99416.22;;;16.77;100.00
9189;BME280;34313;50.780;6.084;2023-08-08T05:16:20;99409.13;;;18.28;92.44
9189;BME280;34313;50.780;6.084;2023-08-08T05:18:45;99412.97;;;19.30;83.37
9189;BME280;34313;50.780;6.084;2023-08-08T05:21:11;99410.72;;;20.27;77.24
9189;BME280;34313;50.780;6.084;2023-08-08T05:23:36;99412.59;;;21.65;62.81
9189;BME280;34313;50.780;6.084;2023-08-08T05:26:02;99406.09;;;22.99;57.93
9189;BME280;34313;50.780;6.084;2023-08-08T05:28:28;99406.16;;;24.48;52.51
9189;BME280;34313;50.780;6.084;2023-08-08T05:30:53;99414.34;;;25.52;47.92
9189;BME280;34313;50.780;6.084;2023-08-08T05:33:19;99415.00;;;24.95;48.43
9189;BME280;34313;50.780;6.084;2023-08-08T05:35:44;99417.81;;;25.46;47.44
9189;BME280;34313;50.780;6.084;2023-08-08T05:38:10;99418.69;;;24.64;48.43
9189;BME280;34313;50.780;6.084;2023-08-08T05:40:35;99420.19;;;23.97;50.17
9189;BME280;34313;50.780;6.084;2023-08-08T05:43:02;99413.97;;;23.17;51.57
9189;BME280;34313;50.780;6.084;2023-08-08T05:45:27;99408.16;;;22.81;52.83
9189;BME280;34313;50.780;6.084;2023-08-08T05:47:52;99417.75;;;22.67;53.51
9189;BME280;34313;50.780;6.084;2023-08-08T05:50:18;99411.69;;;22.73;53.04
9189;BME280;34313;50.780;6.084;2023-08-08T05:52:44;99400.09;;;23.76;50.46
9189;BME280;34313;50.780;6.084;2023-08-08T05:55:09;99421.41;;;23.47;50.86
9189;BME280;34313;50.780;6.084;2023-08-08T05:57:35;99410.88;;;22.56;53.03
9189;BME280;34313;50.780;6.084;2023-08-08T06:00:00;99413.09;;;21.69;55.63
9189;BME280;34313;50.780;6.084;2023-08-08T06:02:26;99422.50;;;21.04;57.81
9189;BME280;34313;50.780;6.084;2023-08-08T06:04:51;99420.50;;;20.36;60.19
9189;BME280;34313;50.780;6.084;2023-08-08T06:07:16;99425.78;;;20.10;61.96
9189;BME280;34313;50.780;6.084;2023-08-08T06:09:42;99421.78;;;19.68;63.56
9189;BME280;34313;50.780;6.084;2023-08-08T06:12:07;99415.22;;;19.62;64.42
9189;BME280;34313;50.780;6.084;2023-08-08T06:14:33;99416.72;;;19.75;64.33
9189;BME280;34313;50.780;6.084;2023-08-08T06:16:58;99428.41;;;19.74;64.98
9189;BME280;34313;50.780;6.084;2023-08-08T06:19:23;99426.50;;;19.29;66.11
9189;BME280;34313;50.780;6.084;2023-08-08T06:21:49;99420.84;;;19.04;67.26
9189;BME280;34313;50.780;6.084;2023-08-08T06:24:15;99415.69;;;18.83;68.13
9189;BME280;34313;50.780;6.084;2023-08-08T06:26:40;99434.41;;;18.83;69.02
9189;BME280;34313;50.780;6.084;2023-08-08T06:29:05;99440.38;;;18.95;69.33
9189;BME280;34313;50.780;6.084;2023-08-08T06:31:31;99440.69;;;18.92;69.66
9189;BME280;34313;50.780;6.084;2023-08-08T06:33:56;99435.91;;;19.33;68.41
9189;BME280;34313;50.780;6.084;2023-08-08T06:36:21;99429.88;;;19.58;67.37
9189;BME280;34313;50.780;6.084;2023-08-08T06:38:47;99431.69;;;19.58;67.28
9189;BME280;34313;50.780;6.084;2023-08-08T06:41:12;99420.38;;;19.46;67.35
9189;BME280;34313;50.780;6.084;2023-08-08T06:43:38;99427.09;;;19.50;66.94
9189;BME280;34313;50.780;6.084;2023-08-08T06:46:03;99434.03;;;19.71;66.81
9189;BME280;34313;50.780;6.084;2023-08-08T06:48:28;99429.38;;;19.73;66.16
9189;BME280;34313;50.780;6.084;2023-08-08T06:50:54;99426.84;;;19.71;66.36
9189;BME280;34313;50.780;6.084;2023-08-08T06:53:19;99434.38;;;19.86;65.68
9189;BME280;34313;50.780;6.084;2023-08-08T06:55:45;99434.22;;;19.87;65.49
9189;BME280;34313;50.780;6.084;2023-08-08T06:58:10;99412.94;;;19.95;64.58
9189;BME280;34313;50.780;6.084;2023-08-08T07:00:36;99433.34;;;20.14;64.35
9189;BME280;34313;50.780;6.084;2023-08-08T07:03:01;99433.03;;;19.99;64.99
9189;BME280;34313;50.780;6.084;2023-08-08T07:05:26;99427.38;;;20.02;65.27
9189;BME280;34313;50.780;6.084;2023-08-08T07:07:52;99427.00;;;20.15;64.62
9189;BME280;34313;50.780;6.084;2023-08-08T07:10:18;99431.78;;;19.76;65.40
9189;BME280;34313;50.780;6.084;2023-08-08T07:12:43;99432.94;;;19.63;66.05
9189;BME280;34313;50.780;6.084;2023-08-08T07:15:09;99421.19;;;20.20;64.62
9189;BME280;34313;50.780;6.084;2023-08-08T07:17:34;99422.47;;;20.16;64.35
9189;BME280;34313;50.780;6.084;2023-08-08T07:20:00;99414.44;;;20.16;64.07
9189;BME280;34313;50.780;6.084;2023-08-08T07:22:25;99430.41;;;20.62;63.34
9189;BME280;34313;50.780;6.084;2023-08-08T07:24:51;99413.88;;;21.19;60.92
9189;BME280;34313;50.780;6.084;2023-08-08T07:27:16;99424.47;;;22.38;57.88
9189;BME280;34313;50.780;6.084;2023-08-08T07:29:41;99426.47;;;22.53;56.36
9189;BME280;34313;50.780;6.084;2023-08-08T07:32:07;99413.69;;;22.14;57.14
9189;BME280;34313;50.780;6.084;2023-08-08T07:34:33;99426.88;;;21.82;58.09
9189;BME280;34313;50.780;6.084;2023-08-08T07:36:58;99425.84;;;21.32;59.44
9189;BME280;34313;50.780;6.084;2023-08-08T07:39:24;99418.06;;;20.87;60.72
9189;BME280;34313;50.780;6.084;2023-08-08T07:41:49;99420.78;;;20.95;60.74
9189;BME280;34313;50.780;6.084;2023-08-08T07:44:15;99415.88;;;22.26;57.62
9189;BME280;34313;50.780;6.084;2023-08-08T07:46:40;99408.06;;;23.93;53.15
9189;BME280;34313;50.780;6.084;2023-08-08T07:49:06;99411.50;;;26.55;46.57
9189;BME280;34313;50.780;6.084;2023-08-08T07:51:32;99412.19;;;28.77;40.70
9189;BME280;34313;50.780;6.084;2023-08-08T07:53:58;99398.03;;;30.05;36.94
9189;BME280;34313;50.780;6.084;2023-08-08T07:56:24;99405.34;;;30.37;36.23
9189;BME280;34313;50.780;6.084;2023-08-08T07:58:49;99413.38;;;31.00;34.34
9189;BME280;34313;50.780;6.084;2023-08-08T08:01:15;99399.09;;;30.80;33.96
9189;BME280;34313;50.780;6.084;2023-08-08T08:03:40;99416.13;;;30.18;35.14
9189;BME280;34313;50.780;6.084;2023-08-08T08:06:05;99416.50;;;29.90;35.51
9189;BME280;34313;50.780;6.084;2023-08-08T08:08:31;99402.19;;;28.44;37.06
9189;BME280;34313;50.780;6.084;2023-08-08T08:10:56;99421.59;;;26.96;40.56
9189;BME280;34313;50.780;6.084;2023-08-08T08:13:22;99416.69;;;25.55;43.27
9189;BME280;34313;50.780;6.084;2023-08-08T08:15:47;99420.16;;;24.43;46.01
9189;BME280;34313;50.780;6.084;2023-08-08T08:18:13;99408.03;;;24.24;46.07
9189;BME280;34313;50.780;6.084;2023-08-08T08:20:39;99407.00;;;25.01;45.00
9189;BME280;34313;50.780;6.084;2023-08-08T08:23:04;99396.25;;;25.82;43.35
9189;BME280;34313;50.780;6.084;2023-08-08T08:25:30;99405.44;;;25.37;43.84
9189;BME280;34313;50.780;6.084;2023-08-08T08:27:57;99396.13;;;25.09;44.66
9189;BME280;34313;50.780;6.084;2023-08-08T08:30:22;99409.84;;;24.32;46.34
9189;BME280;34313;50.780;6.084;2023-08-08T08:32:50;99407.50;;;23.74;47.15
9189;BME280;34313;50.780;6.084;2023-08-08T08:35:17;99409.63;;;23.08;48.64
9189;BME280;34313;50.780;6.084;2023-08-08T08:37:42;99420.53;;;23.15;48.29
9189;BME280;34313;50.780;6.084;2023-08-08T08:40:08;99406.13;;;23.78;47.59
9189;BME280;34313;50.780;6.084;2023-08-08T08:42:34;99418.44;;;24.04;47.14
9189;BME280;34313;50.780;6.084;2023-08-08T08:45:01;99418.75;;;24.09;46.67
9189;BME280;34313;50.780;6.084;2023-08-08T08:47:30;99415.16;;;24.63;45.51
9189;BME280;34313;50.780;6.084;2023-08-08T08:49:56;99410.13;;;24.75;45.38
9189;BME280;34313;50.780;6.084;2023-08-08T08:52:22;99420.38;;;24.19;45.65
9189;BME280;34313;50.780;6.084;2023-08-08T08:54:48;99419.06;;;24.52;45.53
9189;BME280;34313;50.780;6.084;2023-08-08T08:57:14;99409.84;;;24.55;45.25
9189;BME280;34313;50.780;6.084;2023-08-08T08:59:39;99417.41;;;24.05;45.97
9189;BME280;34313;50.780;6.084;2023-08-08T09:02:04;99405.94;;;24.11;46.04
9189;BME280;34313;50.780;6.084;2023-08-08T09:04:32;99416.16;;;23.93;46.65
9189;BME280;34313;50.780;6.084;2023-08-08T09:06:58;99397.50;;;23.60;47.04
9189;BME280;34313;50.780;6.084;2023-08-08T09:09:24;99414.50;;;23.52;47.90
9189;BME280;34313;50.780;6.084;2023-08-08T09:11:53;99410.25;;;23.27;47.79
9189;BME280;34313;50.780;6.084;2023-08-08T09:14:25;99398.63;;;23.66;47.04
9189;BME280;34313;50.780;6.084;2023-08-08T09:16:52;99420.50;;;23.63;47.53
9189;BME280;34313;50.780;6.084;2023-08-08T09:19:19;99422.75;;;24.13;46.29
9189;BME280;34313;50.780;6.084;2023-08-08T09:21:45;99411.13;;;24.36;46.50
9189;BME280;34313;50.780;6.084;2023-08-08T09:24:11;99409.94;;;24.15;45.59
9189;BME280;34313;50.780;6.084;2023-08-08T09:26:36;99412.47;;;23.94;46.52
9189;BME280;34313;50.780;6.084;2023-08-08T09:29:02;99415.09;;;23.71;47.22
9189;BME280;34313;50.780;6.084;2023-08-08T09:31:29;99416.56;;;23.73;47.36
9189;BME280;34313;50.780;6.084;2023-08-08T09:33:58;99415.41;;;24.07;46.69
9189;BME280;34313;50.780;6.084;2023-08-08T09:36:23;99405.94;;;24.11;46.28
9189;BME280;34313;50.780;6.084;2023-08-08T09:38:49;99422.09;;;23.80;46.70
9189;BME280;34313;50.780;6.084;2023-08-08T09:41:14;99427.47;;;23.80;47.07
9189;BME280;34313;50.780;6.084;2023-08-08T09:43:43;99429.06;;;23.66;47.67
9189;BME280;34313;50.780;6.084;2023-08-08T09:46:08;99415.97;;;23.94;46.92
9189;BME280;34313;50.780;6.084;2023-08-08T09:48:35;99396.25;;;23.71;46.79
9189;BME280;34313;50.780;6.084;2023-08-08T09:51:03;99401.44;;;23.81;46.30
9189;BME280;34313;50.780;6.084;2023-08-08T09:53:30;99415.69;;;23.50;47.11
9189;BME280;34313;50.780;6.084;2023-08-08T09:55:56;99420.44;;;23.79;47.05
9189;BME280;34313;50.780;6.084;2023-08-08T09:58:22;99406.47;;;23.75;46.27
9189;BME280;34313;50.780;6.084;2023-08-08T10:00:51;99413.47;;;23.93;46.12
9189;BME280;34313;50.780;6.084;2023-08-08T10:03:17;99413.84;;;23.90;46.44
9189;BME280;34313;50.780;6.084;2023-08-08T10:05:43;99409.22;;;23.67;46.79
9189;BME280;34313;50.780;6.084;2023-08-08T10:08:09;99403.34;;;23.64;47.08
9189;BME280;34313;50.780;6.084;2023-08-08T10:10:35;99417.34;;;23.90;46.63
9189;BME280;34313;50.780;6.084;2023-08-08T10:13:02;99413.06;;;23.81;46.08
9189;BME280;34313;50.780;6.084;2023-08-08T10:15:28;99411.34;;;23.80;46.35
9189;BME280;34313;50.780;6.084;2023-08-08T10:17:55;99408.28;;;23.91;45.48
9189;BME280;34313;50.780;6.084;2023-08-08T10:20:21;99425.25;;;23.92;45.57
9189;BME280;34313;50.780;6.084;2023-08-08T10:22:46;99416.28;;;23.37;46.70
9189;BME280;34313;50.780;6.084;2023-08-08T10:25:32;99427.25;;;23.02;48.18
9189;BME280;34313;50.780;6.084;2023-08-08T10:30:27;99419.97;;;23.28;47.16
9189;BME280;34313;50.780;6.084;2023-08-08T10:32:56;99419.72;;;23.46;47.00
9189;BME280;34313;50.780;6.084;2023-08-08T10:35:22;99411.88;;;24.30;45.25
9189;BME280;34313;50.780;6.084;2023-08-08T10:37:53;99415.41;;;24.53;44.10
9189;BME280;34313;50.780;6.084;2023-08-08T10:40:19;99403.13;;;24.51;43.43
9189;BME280;34313;50.780;6.084;2023-08-08T10:42:46;99411.03;;;25.05;42.30
9189;BME280;34313;50.780;6.084;2023-08-08T10:45:14;99397.53;;;25.20;42.23
9189;BME280;34313;50.780;6.084;2023-08-08T10:47:40;99415.50;;;24.98;41.83
9189;BME280;34313;50.780;6.084;2023-08-08T10:50:08;99410.72;;;24.85;41.72
9189;BME280;34313;50.780;6.084;2023-08-08T10:52:49;99403.84;;;24.22;42.68
9189;BME280;34313;50.780;6.084;2023-08-08T10:55:31;99407.38;;;23.68;44.29
9189;BME280;34313;50.780;6.084;2023-08-08T10:58:07;99408.97;;;23.46;44.58
9189;BME280;34313;50.780;6.084;2023-08-08T11:00:35;99400.94;;;22.65;46.27
9189;BME280;34313;50.780;6.084;2023-08-08T11:03:01;99399.78;;;22.68;46.94
9189;BME280;34313;50.780;6.084;2023-08-08T11:05:31;99388.84;;;22.12;46.75
9189;BME280;34313;50.780;6.084;2023-08-08T11:07:57;99400.56;;;22.10;47.72
9189;BME280;34313;50.780;6.084;2023-08-08T11:10:24;99394.75;;;22.23;47.27
9189;BME280;34313;50.780;6.084;2023-08-08T11:12:59;99396.72;;;21.97;47.52
9189;BME280;34313;50.780;6.084;2023-08-08T11:15:25;99401.69;;;21.67;48.66
9189;BME280;34313;50.780;6.084;2023-08-08T11:17:52;99401.00;;;21.65;49.36
9189;BME280;34313;50.780;6.084;2023-08-08T11:20:17;99400.72;;;21.42;49.48
9189;BME280;34313;50.780;6.084;2023-08-08T11:22:43;99390.09;;;21.24;49.67
9189;BME280;34313;50.780;6.084;2023-08-08T11:25:08;99395.88;;;21.37;50.08
9189;BME280;34313;50.780;6.084;2023-08-08T11:27:33;99395.22;;;21.43;49.88
9189;BME280;34313;50.780;6.084;2023-08-08T11:29:59;99398.34;;;21.30;50.25
9189;BME280;34313;50.780;6.084;2023-08-08T11:32:27;99384.91;;;21.22;50.76
9189;BME280;34313;50.780;6.084;2023-08-08T11:34:54;99394.91;;;21.12;51.08
9189;BME280;34313;50.780;6.084;2023-08-08T11:37:19;99391.13;;;20.70;51.97
9189;BME280;34313;50.780;6.084;2023-08-08T11:39:45;99379.56;;;20.44;52.78
9189;BME280;34313;50.780;6.084;2023-08-08T11:42:11;99380.53;;;20.16;52.49
9189;BME280;34313;50.780;6.084;2023-08-08T11:44:37;99373.50;;;19.79;53.91
9189;BME280;34313;50.780;6.084;2023-08-08T11:47:02;99385.59;;;19.74;54.36
9189;BME280;34313;50.780;6.084;2023-08-08T11:49:28;99378.22;;;19.58;54.89
9189;BME280;34313;50.780;6.084;2023-08-08T11:51:54;99379.81;;;19.51;54.99
9189;BME280;34313;50.780;6.084;2023-08-08T11:54:27;99382.88;;;19.56;54.83
9189;BME280;34313;50.780;6.084;2023-08-08T11:56:53;99384.34;;;19.96;54.34
9189;BME280;34313;50.780;6.084;2023-08-08T11:59:19;99383.31;;;20.33;53.26
9189;BME280;34313;50.780;6.084;2023-08-08T12:01:44;99384.63;;;20.29;52.94
9189;BME280;34313;50.780;6.084;2023-08-08T12:04:09;99382.00;;;20.37;53.24
9189;BME280;34313;50.780;6.084;2023-08-08T12:06:38;99371.97;;;20.13;53.62
9189;BME280;34313;50.780;6.084;2023-08-08T12:09:13;99384.56;;;20.02;53.45
9189;BME280;34313;50.780;6.084;2023-08-08T12:11:39;99375.25;;;19.89;54.31
9189;BME280;34313;50.780;6.084;2023-08-08T12:14:07;99370.63;;;19.81;54.21
9189;BME280;34313;50.780;6.084;2023-08-08T12:16:32;99391.25;;;19.71;53.92
9189;BME280;34313;50.780;6.084;2023-08-08T12:19:02;99386.78;;;19.61;55.09
9189;BME280;34313;50.780;6.084;2023-08-08T12:21:28;99374.81;;;19.65;54.79
9189;BME280;34313;50.780;6.084;2023-08-08T12:23:53;99383.03;;;19.82;54.44
9189;BME280;34313;50.780;6.084;2023-08-08T12:26:18;99359.97;;;19.99;54.44
9189;BME280;34313;50.780;6.084;2023-08-08T12:28:43;99385.78;;;20.70;52.51
9189;BME280;34313;50.780;6.084;2023-08-08T12:31:09;99386.25;;;21.26;51.71
9189;BME280;34313;50.780;6.084;2023-08-08T12:33:35;99373.16;;;21.49;51.22
9189;BME280;34313;50.780;6.084;2023-08-08T12:36:00;99381.09;;;21.76;50.63
9189;BME280;34313;50.780;6.084;2023-08-08T12:38:25;99376.91;;;21.89;50.07
9189;BME280;34313;50.780;6.084;2023-08-08T12:40:50;99377.09;;;21.88;49.80
9189;BME280;34313;50.780;6.084;2023-08-08T12:43:16;99372.25;;;21.92;49.96
9189;BME280;34313;50.780;6.084;2023-08-08T12:45:46;99379.38;;;21.66;50.86
9189;BME280;34313;50.780;6.084;2023-08-08T12:48:12;99379.56;;;21.73;50.66
9189;BME280;34313;50.780;6.084;2023-08-08T12:50:37;99385.28;;;21.78;50.81
9189;BME280;34313;50.780;6.084;2023-08-08T12:53:03;99381.03;;;21.59;50.88
9189;BME280;34313;50.780;6.084;2023-08-08T12:55:30;99366.19;;;21.39;50.99
9189;BME280;34313;50.780;6.084;2023-08-08T12:57:55;99365.31;;;21.30;51.84
9189;BME280;34313;50.780;6.084;2023-08-08T13:00:21;99380.72;;;21.20;52.10
9189;BME280;34313;50.780;6.084;2023-08-08T13:02:47;99386.03;;;21.11;52.90